Portada
METAR-TAF:

METAR-TAF

Aeropuertos :

Bloemfontein, Sudáfrica

latitud: 29-06S, longitud: 026-18E, altitud: 1354 m

Observación

El informe se hizo hace 1 hora y 18 minutos, a las 01:00 UTC
Viento 3 kt del sur-sureste
Temperatura 18°C
Humedad 64%
Presión 1020 hPa

METAR: FABL 020100Z AUTO 15003KT //// R02///// // ///////// 18/11 Q1020

Hora: 04:18 (02:18 UTC)

Pronóstico

El informe se hizo hace 4 horas y 18 minutos, a las 22:00 UTC
Pronóstico válido del 02 a las 00 UTC al 02 a las 24 UTC
Viento 3 kt con dirección variable
Visibilidad 10 km o más
sin nubes por debajo de 1500 m y sin presencia de cumulonimbus.
Probabilidad 30% :
Temporalmente
del 02 a las 18 UTC al 02 a las 22 UTC
Viento 15 kt del sur-suroeste
Escasas nubes a una altura de 4500 ft, Cumulonimbus.
tormenta, lluvia ligera,

TAF: FABL 012200Z 0200/0224 VRB03KT CAVOK TX32/0213Z TN14/0203Z PROB30 TEMPO 0218/0222 20015KT -TSRA FEW045CB

Observaciones y pronósticos meteorológicos de más de 4000 aeropuertos (mensajes METAR y TAF).

Los puntos amarillos y rojos representan las estaciones disponibles.

Ponga el ratón en el punto deseado para ver el nombre de la estación.

Haga clic para ver las observaciones y los pronósticos meteorológicos.

Para cambiar el mapa : haga clic en los botones verdes con una cruz de color negro para hacer un zoom, en el botón verde con un guión para alejar o en las flechas verdes para mapas adyacentes.


METAR-TAF: